This is the latest recevied weather packets stored in our database for station/object WP4PW. If no packets are shown the sender has not sent any weather packets the latest 10 day(s).
| Time | Temp. | Humidity | Pressure | Rain* | Wind** | Luminosity | Snow |
|---|---|---|---|---|---|---|---|
| 1777396296 | 24.44° C | 97% | 1020.4 hPa | 1.27 mm | - | 190 W/m² | - |
| 1777395993 | 25° C | 98% | 1020.7 hPa | 3.05 mm | - | 176 W/m² | - |
| 1777395692 | 25° C | 98% | 1020.7 hPa | 6.1 mm | - | 172 W/m² | - |
| 1777395388 | 25° C | 98% | 1020.7 hPa | 8.89 mm | - | 165 W/m² | - |
| 1777395087 | 25° C | 98% | 1020.7 hPa | 13.72 mm | - | 140 W/m² | - |
| 1777394783 | 25° C | 97% | 1020.8 hPa | 21.59 mm | - | 127 W/m² | - |
| 1777394480 | 25° C | 97% | 1021 hPa | 19.81 mm | - | 108 W/m² | - |
| 1777394176 | 26.11° C | 96% | 1021.3 hPa | 11.94 mm | - | 88 W/m² | - |
| 1777393872 | 26.67° C | 94% | 1021.1 hPa | 8.89 mm | - | 63 W/m² | - |
| 1777393571 | 27.22° C | 91% | 1021 hPa | 7.87 mm | - | 99 W/m² | - |
| 1777393266 | 28.33° C | 87% | 1021 hPa | 1.78 mm | - | 93 W/m² | - |
| 1777392963 | 28.33° C | 84% | 1021 hPa | 0 mm | - | 102 W/m² | - |
| 1777392659 | 28.33° C | 86% | 1020.9 hPa | 0 mm | - | 186 W/m² | - |
| 1777392355 | 28.89° C | 87% | 1021 hPa | 0 mm | - | 183 W/m² | - |
| 1777392055 | 29.44° C | 86% | 1021.2 hPa | 0 mm | - | 175 W/m² | - |
| 1777391750 | 30° C | 82% | 1020.9 hPa | 0 mm | - | 901 W/m² | - |
| 1777391447 | 29.44° C | 84% | 1021.1 hPa | 0 mm | - | 496 W/m² | - |
| 1777391144 | 29.44° C | 83% | 1021 hPa | 0 mm | - | 732 W/m² | - |
| 1777390839 | 29.44° C | 84% | 1021 hPa | 0 mm | - | 681 W/m² | - |
| 1777390537 | 28.89° C | 83% | 1021.2 hPa | 0 mm | - | 569 W/m² | - |
| 1777390233 | 28.89° C | 84% | 1021.1 hPa | 0 mm | - | 744 W/m² | - |
| 1777389930 | 28.89° C | 84% | 1021.2 hPa | 0 mm | - | 477 W/m² | - |
| 1777389626 | 29.44° C | 84% | 1021 hPa | 0 mm | - | 413 W/m² | - |
| 1777389322 | 28.89° C | 83% | 1021.4 hPa | 0 mm | - | 393 W/m² | - |
| 1777389020 | 29.44° C | 82% | 1021.2 hPa | 0 mm | - | 382 W/m² | - |
* Rain latest hour (hover to see other rain measurements)
** Current wind speed in m/s (hover to see current wind gust speed)